ITY684 LIPZ-LIRF
Flight info
| Callsign | ITY684 |
|---|---|
| Flight time | 0h 52m |
| Altitude | 35000 |
| Route | CHI DCT DIPVO DCT NIKMA DCT RITEB |
| Aircraft | A20N/M-SDE2E3FGHIRWXY/LB1 |
Departure
| Time | 2026-02-19 21:03 |
|---|---|
| Airport | Venice Marco Polo Airport (LIPZ) |
Arrival
| Time | 2026-02-19 21:56 |
|---|---|
| Airport | Rome–Fiumicino Leonardo da Vinci International Airport (LIRF) |
| Time | Latitude | Longitude | Altitude | Speed | Heading |
|---|---|---|---|---|---|
| 2026-02-19 20:35 | 45.50552 | 12.34221 | 19 ft | 0 kts | 267° |
| 2026-02-19 20:52 | 45.50552 | 12.34240 | 19 ft | 3 kts | 267° |
| 2026-02-19 20:52 | 45.50553 | 12.34268 | 19 ft | 3 kts | 267° |
| 2026-02-19 20:52 | 45.50555 | 12.34296 | 19 ft | 3 kts | 255° |
| 2026-02-19 20:53 | 45.50562 | 12.34321 | 22 ft | 3 kts | 226° |
| 2026-02-19 20:53 | 45.50576 | 12.34336 | 19 ft | 3 kts | 186° |
| 2026-02-19 20:53 | 45.50583 | 12.34337 | 20 ft | 0 kts | 177° |
| 2026-02-19 20:53 | 45.50568 | 12.34337 | 19 ft | 3 kts | 177° |
| 2026-02-19 20:54 | 45.50550 | 12.34339 | 19 ft | 2 kts | 177° |
| 2026-02-19 20:54 | 45.50545 | 12.34339 | 19 ft | 1 kts | 177° |
| 2026-02-19 20:57 | 45.50528 | 12.34340 | 21 ft | 5 kts | 177° |
| 2026-02-19 20:57 | 45.50492 | 12.34342 | 19 ft | 6 kts | 177° |
| 2026-02-19 20:58 | 45.50449 | 12.34345 | 20 ft | 7 kts | 178° |
| 2026-02-19 20:58 | 45.50397 | 12.34348 | 19 ft | 9 kts | 178° |
| 2026-02-19 20:58 | 45.50330 | 12.34352 | 19 ft | 10 kts | 178° |
| 2026-02-19 20:58 | 45.50264 | 12.34356 | 19 ft | 9 kts | 178° |
| 2026-02-19 20:59 | 45.50197 | 12.34360 | 19 ft | 10 kts | 178° |
| 2026-02-19 20:59 | 45.50129 | 12.34337 | 18 ft | 10 kts | 207° |
| 2026-02-19 20:59 | 45.50076 | 12.34275 | 18 ft | 10 kts | 223° |
| 2026-02-19 20:59 | 45.50020 | 12.34202 | 17 ft | 14 kts | 223° |
| 2026-02-19 21:00 | 45.49890 | 12.34031 | 17 ft | 31 kts | 223° |
| 2026-02-19 21:00 | 45.49726 | 12.33828 | 19 ft | 31 kts | 223° |
| 2026-02-19 21:00 | 45.49601 | 12.33667 | 19 ft | 15 kts | 220° |
| 2026-02-19 21:00 | 45.49528 | 12.33581 | 20 ft | 5 kts | 206° |
| 2026-02-19 21:01 | 45.49514 | 12.33602 | 20 ft | 7 kts | 109° |
| 2026-02-19 21:01 | 45.49509 | 12.33625 | 20 ft | 0 kts | 142° |
| 2026-02-19 21:01 | 45.49506 | 12.33629 | 20 ft | 5 kts | 143° |
| 2026-02-19 21:02 | 45.49457 | 12.33694 | 19 ft | 22 kts | 132° |
| 2026-02-19 21:02 | 45.49476 | 12.33855 | 17 ft | 9 kts | 41° |
| 2026-02-19 21:02 | 45.49484 | 12.33866 | 17 ft | 13 kts | 41° |
| 2026-02-19 21:02 | 45.49747 | 12.34199 | 16 ft | 86 kts | 43° |
| 2026-02-19 21:03 | 45.50367 | 12.34999 | 18 ft | 152 kts | 42° |
| 2026-02-19 21:03 | 45.51227 | 12.36112 | 396 ft | 171 kts | 42° |
| 2026-02-19 21:03 | 45.52129 | 12.37308 | 953 ft | 183 kts | 45° |
| 2026-02-19 21:03 | 45.53008 | 12.38589 | 1527 ft | 166 kts | 49° |
| 2026-02-19 21:04 | 45.53682 | 12.39930 | 2017 ft | 174 kts | 60° |
| 2026-02-19 21:04 | 45.54221 | 12.41542 | 2626 ft | 185 kts | 65° |
| 2026-02-19 21:04 | 45.54761 | 12.43245 | 3311 ft | 190 kts | 65° |
| 2026-02-19 21:04 | 45.55275 | 12.45005 | 3970 ft | 194 kts | 73° |
| 2026-02-19 21:05 | 45.55524 | 12.46912 | 4578 ft | 197 kts | 80° |
| 2026-02-19 21:05 | 45.55339 | 12.48845 | 5168 ft | 203 kts | 115° |
| 2026-02-19 21:05 | 45.54475 | 12.50478 | 5753 ft | 211 kts | 128° |
| 2026-02-19 21:05 | 45.53515 | 12.52142 | 6227 ft | 223 kts | 129° |
| 2026-02-19 21:06 | 45.52290 | 12.53550 | 6913 ft | 232 kts | 151° |
| 2026-02-19 21:06 | 45.50710 | 12.54180 | 7603 ft | 249 kts | 175° |
| 2026-02-19 21:06 | 45.48938 | 12.53941 | 8320 ft | 261 kts | 188° |
| 2026-02-19 21:06 | 45.47129 | 12.53449 | 9243 ft | 267 kts | 190° |
| 2026-02-19 21:07 | 45.45293 | 12.52942 | 10138 ft | 274 kts | 190° |
| 2026-02-19 21:07 | 45.43336 | 12.52430 | 10558 ft | 298 kts | 189° |
| 2026-02-19 21:07 | 45.41218 | 12.51900 | 10943 ft | 321 kts | 189° |
| 2026-02-19 21:07 | 45.38958 | 12.51350 | 11576 ft | 335 kts | 189° |
| 2026-02-19 21:08 | 45.36639 | 12.50793 | 12452 ft | 341 kts | 189° |
| 2026-02-19 21:08 | 45.34290 | 12.50156 | 13387 ft | 346 kts | 194° |
| 2026-02-19 21:08 | 45.32033 | 12.48898 | 14220 ft | 351 kts | 206° |
| 2026-02-19 21:08 | 45.29857 | 12.47170 | 15063 ft | 356 kts | 209° |
| 2026-02-19 21:09 | 45.27714 | 12.45364 | 15863 ft | 361 kts | 211° |
| 2026-02-19 21:09 | 45.25544 | 12.43527 | 16639 ft | 365 kts | 211° |
| 2026-02-19 21:09 | 45.23345 | 12.41674 | 17362 ft | 372 kts | 211° |
| 2026-02-19 21:09 | 45.21100 | 12.39791 | 17772 ft | 386 kts | 212° |
| 2026-02-19 21:10 | 45.18774 | 12.37847 | 18457 ft | 389 kts | 212° |
| 2026-02-19 21:10 | 45.16431 | 12.35894 | 19187 ft | 392 kts | 212° |
| 2026-02-19 21:10 | 45.14042 | 12.33905 | 19902 ft | 395 kts | 212° |
| 2026-02-19 21:10 | 45.11693 | 12.31953 | 20593 ft | 398 kts | 212° |
| 2026-02-19 21:11 | 45.09248 | 12.30067 | 21269 ft | 402 kts | 207° |
| 2026-02-19 21:11 | 45.06614 | 12.28673 | 21937 ft | 408 kts | 197° |
| 2026-02-19 21:11 | 45.03799 | 12.27949 | 22587 ft | 413 kts | 188° |
| 2026-02-19 21:11 | 45.00921 | 12.27601 | 23209 ft | 417 kts | 185° |
| 2026-02-19 21:12 | 44.98006 | 12.27425 | 23712 ft | 421 kts | 184° |
| 2026-02-19 21:12 | 44.95066 | 12.27326 | 24209 ft | 424 kts | 183° |
| 2026-02-19 21:12 | 44.92105 | 12.27243 | 24702 ft | 427 kts | 183° |
| 2026-02-19 21:12 | 44.89120 | 12.27148 | 25082 ft | 432 kts | 183° |
| 2026-02-19 21:13 | 44.86113 | 12.27031 | 25703 ft | 430 kts | 183° |
| 2026-02-19 21:13 | 44.83123 | 12.26899 | 26282 ft | 431 kts | 184° |
| 2026-02-19 21:13 | 44.80116 | 12.26752 | 26727 ft | 434 kts | 184° |
| 2026-02-19 21:13 | 44.77678 | 12.26628 | 27071 ft | 436 kts | 184° |
| 2026-02-19 21:14 | 44.77352 | 12.26611 | 27117 ft | 436 kts | 184° |
| 2026-02-19 21:14 | 44.74296 | 12.26451 | 27545 ft | 439 kts | 184° |
| 2026-02-19 21:14 | 44.71235 | 12.26290 | 27961 ft | 442 kts | 184° |
| 2026-02-19 21:14 | 44.68150 | 12.26129 | 28359 ft | 445 kts | 184° |
| 2026-02-19 21:15 | 44.65039 | 12.25968 | 28788 ft | 447 kts | 184° |
| 2026-02-19 21:15 | 44.61900 | 12.25806 | 29271 ft | 448 kts | 183° |
| 2026-02-19 21:15 | 44.58780 | 12.25646 | 29873 ft | 445 kts | 183° |
| 2026-02-19 21:15 | 44.55600 | 12.25484 | 30353 ft | 444 kts | 184° |
| 2026-02-19 21:16 | 44.52557 | 12.25329 | 30723 ft | 445 kts | 184° |
| 2026-02-19 21:16 | 44.49457 | 12.25171 | 30999 ft | 448 kts | 184° |
| 2026-02-19 21:16 | 44.46299 | 12.25009 | 31371 ft | 448 kts | 184° |
| 2026-02-19 21:16 | 44.43142 | 12.24848 | 31784 ft | 447 kts | 184° |
| 2026-02-19 21:17 | 44.40044 | 12.24691 | 32176 ft | 447 kts | 184° |
| 2026-02-19 21:17 | 44.36938 | 12.24533 | 32556 ft | 447 kts | 184° |
| 2026-02-19 21:17 | 44.33832 | 12.24375 | 32925 ft | 447 kts | 184° |
| 2026-02-19 21:17 | 44.30747 | 12.24219 | 33274 ft | 447 kts | 184° |
| 2026-02-19 21:18 | 44.27635 | 12.24061 | 33657 ft | 447 kts | 184° |
| 2026-02-19 21:18 | 44.24529 | 12.23904 | 33938 ft | 447 kts | 184° |
| 2026-02-19 21:18 | 44.21415 | 12.23746 | 34200 ft | 448 kts | 184° |
| 2026-02-19 21:18 | 44.18299 | 12.23588 | 34453 ft | 448 kts | 184° |
| 2026-02-19 21:19 | 44.15175 | 12.23430 | 34656 ft | 450 kts | 184° |
| 2026-02-19 21:19 | 44.12038 | 12.23272 | 34688 ft | 451 kts | 184° |
| 2026-02-19 21:19 | 44.05770 | 12.22957 | 34685 ft | 450 kts | 184° |
| 2026-02-19 21:20 | 43.99508 | 12.22643 | 34680 ft | 450 kts | 184° |
| 2026-02-19 21:20 | 43.93197 | 12.22326 | 34674 ft | 451 kts | 185° |
| 2026-02-19 21:21 | 43.86922 | 12.22012 | 34680 ft | 451 kts | 185° |
| 2026-02-19 21:21 | 43.80647 | 12.21699 | 34677 ft | 451 kts | 185° |
| 2026-02-19 21:22 | 43.74371 | 12.21387 | 34681 ft | 451 kts | 185° |
| 2026-02-19 21:22 | 43.68086 | 12.21075 | 34685 ft | 451 kts | 185° |
| 2026-02-19 21:23 | 43.61825 | 12.20764 | 34694 ft | 451 kts | 185° |
| 2026-02-19 21:23 | 43.55581 | 12.20452 | 34699 ft | 451 kts | 185° |
| 2026-02-19 21:24 | 43.49305 | 12.20139 | 34709 ft | 451 kts | 185° |
| 2026-02-19 21:24 | 43.42986 | 12.19823 | 34699 ft | 451 kts | 185° |
| 2026-02-19 21:25 | 43.36706 | 12.19511 | 34697 ft | 451 kts | 185° |
| 2026-02-19 21:25 | 43.30473 | 12.19202 | 34718 ft | 452 kts | 185° |
| 2026-02-19 21:26 | 43.24181 | 12.18891 | 34724 ft | 452 kts | 185° |
| 2026-02-19 21:26 | 43.17857 | 12.18578 | 34765 ft | 452 kts | 185° |
| 2026-02-19 21:27 | 43.12610 | 12.18320 | 34774 ft | 452 kts | 185° |
| 2026-02-19 21:27 | 43.06316 | 12.18013 | 34012 ft | 446 kts | 185° |
| 2026-02-19 21:28 | 43.03255 | 12.17870 | 33015 ft | 446 kts | 185° |
| 2026-02-19 21:28 | 43.00145 | 12.17727 | 31898 ft | 448 kts | 185° |
| 2026-02-19 21:28 | 42.97016 | 12.17584 | 30752 ft | 450 kts | 185° |
| 2026-02-19 21:28 | 42.93873 | 12.17441 | 29539 ft | 454 kts | 184° |
| 2026-02-19 21:29 | 42.90707 | 12.17298 | 28063 ft | 457 kts | 184° |
| 2026-02-19 21:29 | 42.87504 | 12.17154 | 26510 ft | 463 kts | 184° |
| 2026-02-19 21:29 | 42.84261 | 12.17007 | 24930 ft | 470 kts | 184° |
| 2026-02-19 21:29 | 42.80966 | 12.16858 | 23365 ft | 477 kts | 184° |
| 2026-02-19 21:30 | 42.77634 | 12.16709 | 21888 ft | 477 kts | 184° |
| 2026-02-19 21:30 | 42.74345 | 12.16563 | 20814 ft | 468 kts | 184° |
| 2026-02-19 21:30 | 42.71137 | 12.16604 | 20109 ft | 454 kts | 175° |
| 2026-02-19 21:30 | 42.68171 | 12.17730 | 19810 ft | 434 kts | 157° |
| 2026-02-19 21:31 | 42.65555 | 12.19642 | 19540 ft | 412 kts | 151° |
| 2026-02-19 21:31 | 42.63131 | 12.21621 | 19250 ft | 393 kts | 150° |
| 2026-02-19 21:31 | 42.60843 | 12.23502 | 18966 ft | 376 kts | 150° |
| 2026-02-19 21:31 | 42.58647 | 12.25291 | 18694 ft | 360 kts | 151° |
| 2026-02-19 21:32 | 42.56558 | 12.26980 | 18410 ft | 349 kts | 151° |
| 2026-02-19 21:32 | 42.52384 | 12.30323 | 17958 ft | 349 kts | 152° |
| 2026-02-19 21:32 | 42.50266 | 12.32012 | 17795 ft | 348 kts | 152° |
| 2026-02-19 21:33 | 42.48183 | 12.33671 | 17628 ft | 347 kts | 152° |
| 2026-02-19 21:33 | 42.46110 | 12.35322 | 17373 ft | 345 kts | 152° |
| 2026-02-19 21:33 | 42.44038 | 12.36971 | 17108 ft | 344 kts | 152° |
| 2026-02-19 21:33 | 42.41980 | 12.38607 | 16867 ft | 342 kts | 152° |
| 2026-02-19 21:34 | 42.39929 | 12.40237 | 16608 ft | 341 kts | 152° |
| 2026-02-19 21:34 | 42.37874 | 12.41821 | 16356 ft | 338 kts | 157° |
| 2026-02-19 21:34 | 42.35704 | 12.42751 | 16109 ft | 327 kts | 178° |
| 2026-02-19 21:34 | 42.33468 | 12.42650 | 15867 ft | 320 kts | 192° |
| 2026-02-19 21:35 | 42.31278 | 12.42168 | 15636 ft | 318 kts | 195° |
| 2026-02-19 21:35 | 42.29101 | 12.41628 | 15406 ft | 317 kts | 195° |
| 2026-02-19 21:35 | 42.26929 | 12.41091 | 15165 ft | 316 kts | 195° |
| 2026-02-19 21:35 | 42.24772 | 12.40564 | 14924 ft | 315 kts | 194° |
| 2026-02-19 21:36 | 42.22611 | 12.40041 | 14702 ft | 316 kts | 194° |
| 2026-02-19 21:36 | 42.20438 | 12.39519 | 14458 ft | 316 kts | 194° |
| 2026-02-19 21:36 | 42.18277 | 12.39003 | 14233 ft | 315 kts | 194° |
| 2026-02-19 21:36 | 42.16126 | 12.38491 | 14000 ft | 314 kts | 194° |
| 2026-02-19 21:37 | 42.13947 | 12.37974 | 13765 ft | 313 kts | 194° |
| 2026-02-19 21:37 | 42.11841 | 12.37475 | 13534 ft | 312 kts | 194° |
| 2026-02-19 21:37 | 42.09708 | 12.36972 | 13291 ft | 311 kts | 194° |
| 2026-02-19 21:37 | 42.07554 | 12.36462 | 13056 ft | 310 kts | 194° |
| 2026-02-19 21:38 | 42.05356 | 12.35936 | 12897 ft | 331 kts | 194° |
| 2026-02-19 21:38 | 42.03067 | 12.35391 | 12669 ft | 336 kts | 194° |
| 2026-02-19 21:38 | 42.00759 | 12.34848 | 12405 ft | 336 kts | 194° |
| 2026-02-19 21:38 | 41.98394 | 12.34600 | 12094 ft | 340 kts | 177° |
| 2026-02-19 21:39 | 41.96069 | 12.35285 | 11803 ft | 340 kts | 167° |
| 2026-02-19 21:39 | 41.93836 | 12.36214 | 11508 ft | 332 kts | 165° |
| 2026-02-19 21:39 | 41.91685 | 12.37142 | 11319 ft | 327 kts | 165° |
| 2026-02-19 21:39 | 41.89491 | 12.38079 | 11077 ft | 327 kts | 166° |
| 2026-02-19 21:40 | 41.87348 | 12.38985 | 10897 ft | 327 kts | 166° |
| 2026-02-19 21:40 | 41.85180 | 12.39895 | 10696 ft | 324 kts | 166° |
| 2026-02-19 21:40 | 41.83063 | 12.40784 | 10544 ft | 313 kts | 166° |
| 2026-02-19 21:40 | 41.81021 | 12.41641 | 10394 ft | 302 kts | 166° |
| 2026-02-19 21:41 | 41.79051 | 12.42465 | 10260 ft | 292 kts | 166° |
| 2026-02-19 21:41 | 41.77140 | 12.43263 | 10044 ft | 284 kts | 166° |
| 2026-02-19 21:41 | 41.75265 | 12.44044 | 9750 ft | 281 kts | 166° |
| 2026-02-19 21:41 | 41.73404 | 12.44816 | 9342 ft | 280 kts | 166° |
| 2026-02-19 21:42 | 41.71550 | 12.45586 | 9028 ft | 276 kts | 166° |
| 2026-02-19 21:42 | 41.69728 | 12.46343 | 8850 ft | 274 kts | 166° |
| 2026-02-19 21:42 | 41.67909 | 12.47098 | 8648 ft | 274 kts | 166° |
| 2026-02-19 21:42 | 41.66066 | 12.47859 | 8454 ft | 273 kts | 166° |
| 2026-02-19 21:43 | 41.64254 | 12.48607 | 8246 ft | 272 kts | 166° |
| 2026-02-19 21:43 | 41.62470 | 12.49342 | 8046 ft | 271 kts | 166° |
| 2026-02-19 21:43 | 41.60671 | 12.50084 | 7856 ft | 270 kts | 166° |
| 2026-02-19 21:43 | 41.58881 | 12.50820 | 7645 ft | 270 kts | 166° |
| 2026-02-19 21:44 | 41.57097 | 12.51551 | 7457 ft | 269 kts | 166° |
| 2026-02-19 21:44 | 41.55313 | 12.52282 | 7256 ft | 268 kts | 166° |
| 2026-02-19 21:44 | 41.53536 | 12.53009 | 7077 ft | 267 kts | 166° |
| 2026-02-19 21:44 | 41.51763 | 12.53735 | 6967 ft | 264 kts | 166° |
| 2026-02-19 21:45 | 41.50027 | 12.54453 | 6847 ft | 257 kts | 166° |
| 2026-02-19 21:45 | 41.48319 | 12.55159 | 6714 ft | 257 kts | 166° |
| 2026-02-19 21:45 | 41.46634 | 12.55839 | 6536 ft | 256 kts | 169° |
| 2026-02-19 21:45 | 41.44895 | 12.56001 | 6336 ft | 248 kts | 195° |
| 2026-02-19 21:46 | 41.43388 | 12.55067 | 6155 ft | 236 kts | 226° |
| 2026-02-19 21:46 | 41.42472 | 12.53324 | 6008 ft | 228 kts | 250° |
| 2026-02-19 21:46 | 41.41945 | 12.51341 | 5832 ft | 228 kts | 256° |
| 2026-02-19 21:46 | 41.41490 | 12.49323 | 5667 ft | 225 kts | 256° |
| 2026-02-19 21:47 | 41.41188 | 12.47343 | 5511 ft | 212 kts | 270° |
| 2026-02-19 21:47 | 41.41631 | 12.45535 | 5349 ft | 209 kts | 308° |
| 2026-02-19 21:47 | 41.42610 | 12.44101 | 5164 ft | 211 kts | 318° |
| 2026-02-19 21:47 | 41.43878 | 12.43103 | 4984 ft | 213 kts | 336° |
| 2026-02-19 21:48 | 41.45289 | 12.42471 | 4819 ft | 214 kts | 341° |
| 2026-02-19 21:48 | 41.46715 | 12.41895 | 4671 ft | 212 kts | 341° |
| 2026-02-19 21:48 | 41.48094 | 12.41337 | 4514 ft | 204 kts | 341° |
| 2026-02-19 21:48 | 41.49425 | 12.40791 | 4345 ft | 203 kts | 341° |
| 2026-02-19 21:49 | 41.50778 | 12.40223 | 4289 ft | 200 kts | 339° |
| 2026-02-19 21:49 | 41.52107 | 12.39659 | 4288 ft | 200 kts | 339° |
| 2026-02-19 21:49 | 41.53420 | 12.39113 | 4291 ft | 201 kts | 340° |
| 2026-02-19 21:49 | 41.54759 | 12.38563 | 4294 ft | 202 kts | 340° |
| 2026-02-19 21:50 | 41.56100 | 12.38009 | 4296 ft | 202 kts | 340° |
| 2026-02-19 21:50 | 41.57446 | 12.37452 | 4296 ft | 202 kts | 340° |
| 2026-02-19 21:50 | 41.58785 | 12.36896 | 4275 ft | 202 kts | 340° |
| 2026-02-19 21:50 | 41.60144 | 12.36332 | 3911 ft | 206 kts | 340° |
| 2026-02-19 21:51 | 41.61499 | 12.35770 | 3603 ft | 201 kts | 340° |
| 2026-02-19 21:51 | 41.62811 | 12.35226 | 3319 ft | 194 kts | 340° |
| 2026-02-19 21:51 | 41.64094 | 12.34693 | 2978 ft | 192 kts | 341° |
| 2026-02-19 21:51 | 41.65362 | 12.34166 | 2627 ft | 190 kts | 341° |
| 2026-02-19 21:52 | 41.66621 | 12.33643 | 2481 ft | 190 kts | 341° |
| 2026-02-19 21:52 | 41.67882 | 12.33119 | 2464 ft | 190 kts | 341° |
| 2026-02-19 21:52 | 41.69139 | 12.32596 | 2480 ft | 188 kts | 341° |
| 2026-02-19 21:52 | 41.70361 | 12.32088 | 2462 ft | 177 kts | 341° |
| 2026-02-19 21:53 | 41.71449 | 12.31636 | 2476 ft | 151 kts | 340° |
| 2026-02-19 21:53 | 41.72420 | 12.31240 | 2409 ft | 145 kts | 341° |
| 2026-02-19 21:53 | 41.73387 | 12.30851 | 2190 ft | 143 kts | 341° |
| 2026-02-19 21:53 | 41.74349 | 12.30470 | 1748 ft | 149 kts | 341° |
| 2026-02-19 21:54 | 41.75389 | 12.30049 | 1222 ft | 155 kts | 341° |
| 2026-02-19 21:54 | 41.76374 | 12.29611 | 956 ft | 144 kts | 340° |
| 2026-02-19 21:54 | 41.77314 | 12.29227 | 660 ft | 139 kts | 342° |
| 2026-02-19 21:54 | 41.78225 | 12.28814 | 423 ft | 138 kts | 339° |
| 2026-02-19 21:55 | 41.79151 | 12.28429 | 325 ft | 139 kts | 342° |
| 2026-02-19 21:55 | 41.80991 | 12.27655 | 86 ft | 139 kts | 340° |
| 2026-02-19 21:55 | 41.81899 | 12.27269 | 17 ft | 129 kts | 341° |
| 2026-02-19 21:56 | 41.82560 | 12.26962 | 14 ft | 61 kts | 316° |
| 2026-02-19 21:56 | 41.82701 | 12.26765 | 14 ft | 8 kts | 314° |
| 2026-02-19 21:56 | 41.82714 | 12.26748 | 14 ft | 2 kts | 314° |
| 2026-02-19 21:56 | 41.82730 | 12.26722 | 14 ft | 5 kts | 306° |
| 2026-02-19 21:57 | 41.82741 | 12.26671 | 14 ft | 7 kts | 264° |
| 2026-02-19 21:57 | 41.82723 | 12.26604 | 14 ft | 9 kts | 252° |
| 2026-02-19 21:57 | 41.82691 | 12.26519 | 13 ft | 11 kts | 216° |
| 2026-02-19 21:57 | 41.82607 | 12.26526 | 13 ft | 14 kts | 164° |
| 2026-02-19 21:58 | 41.82506 | 12.26566 | 13 ft | 17 kts | 163° |
| 2026-02-19 21:58 | 41.82388 | 12.26615 | 13 ft | 19 kts | 162° |
| 2026-02-19 21:58 | 41.82253 | 12.26672 | 13 ft | 21 kts | 162° |
| 2026-02-19 21:58 | 41.82114 | 12.26730 | 15 ft | 17 kts | 162° |
| 2026-02-19 21:59 | 41.82074 | 12.26748 | 13 ft | 6 kts | 162° |
| 2026-02-19 21:59 | 41.82017 | 12.26772 | 14 ft | 10 kts | 162° |
| 2026-02-19 21:59 | 41.81940 | 12.26804 | 13 ft | 13 kts | 162° |
| 2026-02-19 21:59 | 41.81842 | 12.26845 | 13 ft | 16 kts | 164° |
| 2026-02-19 22:00 | 41.81728 | 12.26892 | 14 ft | 18 kts | 162° |
| 2026-02-19 22:00 | 41.81599 | 12.26946 | 14 ft | 21 kts | 163° |
| 2026-02-19 22:00 | 41.81454 | 12.27006 | 13 ft | 23 kts | 163° |
| 2026-02-19 22:00 | 41.81298 | 12.27069 | 13 ft | 24 kts | 163° |
| 2026-02-19 22:01 | 41.81153 | 12.27127 | 15 ft | 20 kts | 163° |
| 2026-02-19 22:01 | 41.81015 | 12.27182 | 15 ft | 21 kts | 163° |
| 2026-02-19 22:01 | 41.80885 | 12.27244 | 17 ft | 16 kts | 163° |
| 2026-02-19 22:01 | 41.80768 | 12.27289 | 15 ft | 19 kts | 174° |
| 2026-02-19 22:02 | 41.80655 | 12.27214 | 16 ft | 19 kts | 246° |
| 2026-02-19 22:02 | 41.80605 | 12.27035 | 16 ft | 21 kts | 249° |
| 2026-02-19 22:02 | 41.80553 | 12.26846 | 16 ft | 22 kts | 253° |
| 2026-02-19 22:02 | 41.80496 | 12.26651 | 19 ft | 23 kts | 250° |
| 2026-02-19 22:03 | 41.80442 | 12.26450 | 20 ft | 16 kts | 250° |
| 2026-02-19 22:03 | 41.80403 | 12.26302 | 18 ft | 17 kts | 250° |
| 2026-02-19 22:03 | 41.80364 | 12.26165 | 18 ft | 0 kts | 250° |
| 2026-02-19 22:03 | 41.80358 | 12.26149 | 20 ft | 6 kts | 242° |
| 2026-02-19 22:04 | 41.80301 | 12.26087 | 17 ft | 15 kts | 207° |
| 2026-02-19 22:04 | 41.80181 | 12.26014 | 17 ft | 23 kts | 204° |
| 2026-02-19 22:04 | 41.80029 | 12.25918 | 18 ft | 25 kts | 205° |
| 2026-02-19 22:04 | 41.79886 | 12.25830 | 18 ft | 21 kts | 206° |
| 2026-02-19 22:05 | 41.79772 | 12.25747 | 18 ft | 19 kts | 206° |
| 2026-02-19 22:05 | 41.79735 | 12.25723 | 19 ft | 2 kts | 205° |
| 2026-02-19 22:05 | 41.79724 | 12.25717 | 17 ft | 3 kts | 205° |
| 2026-02-19 22:05 | 41.79717 | 12.25710 | 17 ft | 0 kts | 216° |
| 2026-02-19 22:06 | 41.79712 | 12.25685 | 17 ft | 0 kts | 268° |
| 2026-02-19 22:06 | 41.79718 | 12.25666 | 17 ft | 3 kts | 292° |
| 2026-02-19 22:07 | 41.79724 | 12.25648 | 17 ft | 3 kts | 295° |
| 2026-02-19 22:07 | 41.79726 | 12.25641 | 19 ft | 0 kts | 295° |